createdAt,value
2019-02-03T00:00:44.404Z,99.99
2019-02-03T00:01:44.400Z,99.99
2019-02-03T00:02:44.434Z,99.99
2019-02-03T00:03:44.478Z,99.99
2019-02-03T00:04:44.509Z,99.99
2019-02-03T00:05:44.546Z,99.99
2019-02-03T00:06:44.594Z,99.99
2019-02-03T00:07:44.705Z,99.99
2019-02-03T00:08:44.653Z,99.99
2019-02-03T00:09:44.693Z,99.99
2019-02-03T00:10:44.767Z,99.99
2019-02-03T00:11:44.767Z,99.99
2019-02-03T00:12:44.801Z,99.99
2019-02-03T00:13:44.850Z,99.99
2019-02-03T00:14:44.884Z,99.99
2019-02-03T00:15:44.910Z,99.99
2019-02-03T00:16:44.947Z,99.99
2019-02-03T00:17:44.985Z,99.99
2019-02-03T00:18:45.214Z,99.99
2019-02-03T00:19:45.061Z,99.99
2019-02-03T00:20:45.374Z,99.99
2019-02-03T00:21:45.310Z,99.99
2019-02-03T00:22:45.175Z,99.99
2019-02-03T00:23:45.210Z,99.99
2019-02-03T00:24:45.306Z,99.99
2019-02-03T00:25:45.281Z,99.99
2019-02-03T00:26:45.314Z,99.99
2019-02-03T00:27:45.350Z,99.99
2019-02-03T00:28:45.394Z,99.99
2019-02-03T00:29:45.432Z,99.99
2019-02-03T00:30:45.464Z,99.99
2019-02-03T00:31:45.495Z,99.99
2019-02-03T00:32:45.533Z,99.99
2019-02-03T00:33:45.574Z,99.99
2019-02-03T00:34:45.607Z,99.99
2019-02-03T00:35:45.643Z,99.99
2019-02-03T00:36:45.680Z,99.99
2019-02-03T00:37:45.721Z,99.99
2019-02-03T00:38:45.760Z,99.99
2019-02-03T00:39:45.839Z,99.99
2019-02-03T00:40:45.856Z,99.99
2019-02-03T00:41:45.870Z,99.99
2019-02-03T00:42:45.908Z,99.99
2019-02-03T00:43:45.944Z,99.99
2019-02-03T00:44:45.976Z,99.99
2019-02-03T00:45:46.010Z,99.99
2019-02-03T00:46:46.046Z,99.99
2019-02-03T00:47:46.082Z,99.99
2019-02-03T00:48:46.123Z,99.99
2019-02-03T00:49:46.155Z,99.99
2019-02-03T00:50:46.245Z,99.99
2019-02-03T00:51:46.232Z,99.99
2019-02-03T00:52:46.268Z,99.99
2019-02-03T00:53:46.303Z,99.99
2019-02-03T00:54:46.340Z,99.99
2019-02-03T00:55:46.376Z,99.99
2019-02-03T00:56:46.413Z,99.99
2019-02-03T00:57:46.451Z,99.99
2019-02-03T00:58:46.496Z,99.99
2019-02-03T00:59:46.530Z,99.99
2019-02-03T01:00:46.558Z,99.99
2019-02-03T01:01:46.611Z,99.99
2019-02-03T01:02:46.630Z,99.99
2019-02-03T01:03:46.675Z,99.99
2019-02-03T01:04:46.785Z,99.99
2019-02-03T01:05:46.740Z,99.99
2019-02-03T01:06:46.777Z,99.99
2019-02-03T01:07:46.820Z,99.99
2019-02-03T01:08:46.854Z,99.99
2019-02-03T01:09:46.891Z,99.99
2019-02-03T01:10:47.024Z,99.99
2019-02-03T01:11:46.976Z,99.99
2019-02-03T01:12:46.997Z,99.99
2019-02-03T01:13:47.033Z,99.99
2019-02-03T01:14:47.072Z,99.99
2019-02-03T01:15:47.114Z,99.99
2019-02-03T01:16:47.146Z,99.99
2019-02-03T01:17:47.183Z,99.99
2019-02-03T01:18:47.217Z,99.99
2019-02-03T01:19:47.255Z,99.99
2019-02-03T01:20:47.290Z,99.99
2019-02-03T01:21:47.325Z,99.99
2019-02-03T01:22:47.363Z,99.99
2019-02-03T01:23:47.524Z,99.99
2019-02-03T01:24:47.436Z,99.99
2019-02-03T01:25:47.493Z,99.99
2019-02-03T01:26:47.519Z,99.99
2019-02-03T01:27:47.545Z,99.99
2019-02-03T01:28:47.582Z,99.99
2019-02-03T01:29:47.620Z,99.99
2019-02-03T01:30:47.659Z,99.99
2019-02-03T01:31:49.203Z,99.99
2019-02-03T01:32:47.731Z,99.99
2019-02-03T01:33:47.764Z,99.99
2019-02-03T01:34:47.799Z,99.99
2019-02-03T01:35:47.836Z,99.99
2019-02-03T01:36:47.875Z,99.99
2019-02-03T01:37:47.908Z,99.99
2019-02-03T01:38:47.959Z,99.99
2019-02-03T01:39:48.080Z,99.99
2019-02-03T01:40:48.020Z,99.99
2019-02-03T01:41:48.054Z,99.99
2019-02-03T01:42:48.096Z,99.99
2019-02-03T01:43:48.134Z,99.99
2019-02-03T01:44:48.164Z,99.99
2019-02-03T01:45:48.202Z,99.99
2019-02-03T01:46:48.602Z,99.99
2019-02-03T01:47:48.278Z,99.99
2019-02-03T01:48:48.760Z,99.99
2019-02-03T01:49:48.447Z,99.99
2019-02-03T01:50:48.389Z,99.99
2019-02-03T01:51:48.417Z,99.99
2019-02-03T01:52:48.456Z,99.99
2019-02-03T01:53:48.525Z,99.99
2019-02-03T01:54:48.528Z,99.99
2019-02-03T01:55:48.566Z,99.99
2019-02-03T01:56:48.922Z,99.99
2019-02-03T01:57:48.637Z,99.99
2019-02-03T01:58:48.675Z,99.99
2019-02-03T01:59:48.711Z,99.99
2019-02-03T02:00:48.746Z,99.99
2019-02-03T02:01:48.787Z,99.99
2019-02-03T02:02:48.819Z,99.99
2019-02-03T02:03:48.858Z,99.99
2019-02-03T02:04:48.902Z,99.99
2019-02-03T02:05:48.926Z,99.99
2019-02-03T02:06:48.971Z,99.99
2019-02-03T02:07:51.791Z,99.99
2019-02-03T02:08:49.043Z,99.99
2019-02-03T02:09:49.071Z,99.99
2019-02-03T02:10:49.131Z,99.99
2019-02-03T02:11:49.155Z,99.99
2019-02-03T02:12:49.193Z,99.99
2019-02-03T02:13:49.216Z,99.99
2019-02-03T02:14:49.370Z,99.99
2019-02-03T02:15:49.290Z,99.99
2019-02-03T02:16:49.325Z,99.99
2019-02-03T02:17:49.368Z,99.99
2019-02-03T02:18:49.398Z,99.99
2019-02-03T02:19:49.432Z,99.99
2019-02-03T02:20:49.470Z,99.99
2019-02-03T02:21:49.508Z,99.99
2019-02-03T02:22:49.551Z,99.99
2019-02-03T02:23:49.580Z,99.99
2019-02-03T02:24:49.617Z,99.99
2019-02-03T02:25:49.654Z,99.99
2019-02-03T02:26:49.687Z,99.99
2019-02-03T02:27:49.898Z,99.99
2019-02-03T02:28:49.768Z,99.99
2019-02-03T02:29:50.200Z,99.99
2019-02-03T02:30:49.834Z,99.99
2019-02-03T02:31:49.911Z,99.99
2019-02-03T02:32:50.062Z,99.99
2019-02-03T02:33:49.945Z,99.99
2019-02-03T02:34:49.982Z,99.99
2019-02-03T02:35:50.013Z,99.99
2019-02-03T02:36:50.052Z,99.99
2019-02-03T02:37:50.085Z,99.99
2019-02-03T02:38:50.124Z,99.99
2019-02-03T02:39:50.159Z,99.99
2019-02-03T02:40:50.190Z,99.99
2019-02-03T02:41:50.230Z,99.99
2019-02-03T02:42:50.267Z,99.99
2019-02-03T02:43:50.377Z,99.99
2019-02-03T02:44:50.520Z,99.99
2019-02-03T02:45:50.394Z,99.99
2019-02-03T02:46:50.418Z,99.99
2019-02-03T02:47:50.452Z,99.99
2019-02-03T02:48:50.484Z,99.99
2019-02-03T02:49:50.518Z,99.99
2019-02-03T02:50:50.554Z,99.99
2019-02-03T02:51:50.597Z,99.99
2019-02-03T02:52:50.627Z,99.99
2019-02-03T02:53:50.664Z,99.99
2019-02-03T02:54:50.701Z,99.99
2019-02-03T02:55:50.733Z,99.99
2019-02-03T02:56:50.770Z,99.99
2019-02-03T02:57:50.825Z,99.99
2019-02-03T02:58:50.854Z,99.99
2019-02-03T02:59:50.878Z,99.99
2019-02-03T03:00:50.918Z,99.99
2019-02-03T03:01:50.962Z,99.99
2019-02-03T03:02:51.021Z,99.99
2019-02-03T03:03:51.024Z,99.99
2019-02-03T03:04:51.061Z,99.99
2019-02-03T03:05:51.098Z,99.99
2019-02-03T03:06:51.139Z,99.99
2019-02-03T03:07:51.166Z,99.99
2019-02-03T03:08:51.205Z,99.99
2019-02-03T03:09:51.241Z,99.99
2019-02-03T03:10:51.287Z,99.99
2019-02-03T03:11:51.313Z,99.99
2019-02-03T03:12:51.351Z,99.99
2019-02-03T03:13:51.384Z,99.99
2019-02-03T03:14:51.424Z,99.99
2019-02-03T03:15:51.469Z,99.99
2019-02-03T03:16:51.513Z,99.99
2019-02-03T03:17:51.580Z,99.99
2019-02-03T03:18:51.566Z,99.99
2019-02-03T03:19:51.601Z,99.99
2019-02-03T03:20:51.646Z,99.99
2019-02-03T03:21:51.683Z,99.99
2019-02-03T03:22:51.711Z,99.99
2019-02-03T03:23:51.746Z,99.99
2019-02-03T03:24:51.789Z,99.99
2019-02-03T03:25:51.818Z,99.99
2019-02-03T03:26:51.857Z,99.99
2019-02-03T03:27:51.899Z,99.99
2019-02-03T03:28:51.928Z,99.99
2019-02-03T03:29:51.966Z,99.99
2019-02-03T03:30:52.008Z,99.99
2019-02-03T03:31:52.045Z,99.99
2019-02-03T03:32:52.072Z,99.99
2019-02-03T03:33:52.109Z,99.99
2019-02-03T03:34:52.145Z,99.99
2019-02-03T03:35:52.181Z,99.99
2019-02-03T03:36:52.218Z,99.99
2019-02-03T03:37:52.296Z,99.99
2019-02-03T03:38:52.292Z,99.99
2019-02-03T03:39:52.326Z,99.99
2019-02-03T03:40:52.365Z,99.99
2019-02-03T03:41:52.398Z,99.99
2019-02-03T03:42:52.438Z,99.99
2019-02-03T03:43:52.472Z,99.99
2019-02-03T03:44:52.508Z,99.99
2019-02-03T03:45:52.543Z,99.99
2019-02-03T03:46:52.576Z,99.99
2019-02-03T03:47:52.615Z,99.99
2019-02-03T03:48:52.650Z,99.99
2019-02-03T03:49:52.687Z,99.99
2019-02-03T03:50:52.724Z,99.99
2019-02-03T03:51:52.758Z,99.99
2019-02-03T03:52:52.801Z,99.99
2019-02-03T03:53:52.839Z,99.99
2019-02-03T03:54:52.867Z,99.99
2019-02-03T03:55:52.902Z,99.99
2019-02-03T03:56:52.941Z,99.99
2019-02-03T03:57:52.993Z,99.99
2019-02-03T03:58:53.012Z,99.99
2019-02-03T03:59:53.048Z,99.99
2019-02-03T04:00:53.133Z,99.99
2019-02-03T04:01:53.120Z,99.99
2019-02-03T04:02:53.164Z,99.99
2019-02-03T04:03:53.190Z,99.99
2019-02-03T04:04:53.226Z,99.99
2019-02-03T04:05:53.266Z,99.99
2019-02-03T04:06:53.301Z,99.99
2019-02-03T04:07:53.435Z,99.99
2019-02-03T04:08:53.379Z,99.99
2019-02-03T04:09:53.407Z,99.99
2019-02-03T04:10:53.444Z,99.99
2019-02-03T04:11:53.479Z,99.99
2019-02-03T04:12:53.515Z,99.99
2019-02-03T04:13:53.552Z,99.99
2019-02-03T04:14:53.590Z,99.99
2019-02-03T04:15:53.623Z,99.99
2019-02-03T04:16:53.659Z,99.99
2019-02-03T04:17:53.693Z,99.99
2019-02-03T04:18:53.737Z,99.99
2019-02-03T04:19:53.767Z,99.99
2019-02-03T04:20:53.803Z,99.99
2019-02-03T04:21:53.840Z,99.99
2019-02-03T04:22:53.875Z,99.99
2019-02-03T04:23:53.910Z,99.99
2019-02-03T04:24:53.946Z,99.99
2019-02-03T04:25:53.984Z,99.99
2019-02-03T04:26:54.019Z,99.99
2019-02-03T04:27:54.053Z,99.99
2019-02-03T04:28:54.090Z,99.99
2019-02-03T04:29:54.125Z,99.99
2019-02-03T04:30:54.161Z,99.99
2019-02-03T04:31:54.197Z,99.99
2019-02-03T04:32:54.241Z,99.99
2019-02-03T04:33:54.269Z,99.99
2019-02-03T04:34:54.305Z,99.99
2019-02-03T04:35:54.341Z,99.99
2019-02-03T04:36:54.389Z,99.99
2019-02-03T04:37:54.414Z,99.99
2019-02-03T04:38:58.167Z,99.99
2019-02-03T04:39:54.494Z,99.99
2019-02-03T04:40:54.530Z,99.99
2019-02-03T04:41:54.557Z,99.99
2019-02-03T04:42:54.594Z,99.99
2019-02-03T04:43:54.639Z,99.99
2019-02-03T04:44:54.669Z,99.99
2019-02-03T04:45:54.705Z,99.99
2019-02-03T04:46:54.739Z,99.99
2019-02-03T04:47:54.774Z,99.99
2019-02-03T04:48:54.817Z,99.99
2019-02-03T04:49:54.854Z,99.99
2019-02-03T04:50:54.883Z,99.99
2019-02-03T04:51:54.918Z,99.99
2019-02-03T04:52:54.954Z,99.99
2019-02-03T04:53:54.990Z,99.99
2019-02-03T04:54:55.025Z,99.99
2019-02-03T04:55:55.060Z,99.99
2019-02-03T04:56:55.096Z,99.99
2019-02-03T04:57:55.137Z,99.99
2019-02-03T04:58:55.225Z,99.99
2019-02-03T04:59:55.204Z,99.99
2019-02-03T05:00:55.241Z,99.99
2019-02-03T05:01:55.293Z,99.99
2019-02-03T05:02:55.314Z,99.99
2019-02-03T05:03:55.354Z,99.99
2019-02-03T05:04:55.385Z,99.99
2019-02-03T05:05:55.421Z,99.99
2019-02-03T05:06:55.467Z,99.99
2019-02-03T05:07:55.502Z,99.99
2019-02-03T05:08:55.527Z,99.99
2019-02-03T05:09:55.565Z,99.99
2019-02-03T05:10:55.600Z,99.99
2019-02-03T05:11:55.634Z,99.99
2019-02-03T05:12:55.671Z,99.99
2019-02-03T05:13:55.708Z,99.99
2019-02-03T05:14:55.842Z,99.99
2019-02-03T05:15:55.788Z,99.99
2019-02-03T05:16:55.814Z,99.99
2019-02-03T05:17:55.858Z,99.99
2019-02-03T05:18:55.888Z,99.99
2019-02-03T05:19:55.921Z,99.99
2019-02-03T05:20:55.961Z,99.99
2019-02-03T05:21:55.995Z,99.99
2019-02-03T05:22:56.028Z,99.99
2019-02-03T05:23:56.063Z,99.99
2019-02-03T05:24:56.106Z,99.99
2019-02-03T05:25:56.133Z,99.99
2019-02-03T05:26:56.170Z,99.99
2019-02-03T05:27:56.205Z,99.99
2019-02-03T05:28:56.241Z,99.99
2019-02-03T05:29:56.278Z,99.99
2019-02-03T05:30:56.312Z,99.99
2019-02-03T05:31:56.347Z,99.99
2019-02-03T05:32:56.383Z,99.99
2019-02-03T05:33:56.421Z,99.99
2019-02-03T05:34:56.470Z,99.99
2019-02-03T05:35:56.492Z,99.99
2019-02-03T05:36:56.526Z,99.99
2019-02-03T05:37:56.561Z,99.99
2019-02-03T05:38:56.598Z,99.99
2019-02-03T05:39:56.638Z,99.99
2019-02-03T05:40:56.668Z,99.99
2019-02-03T05:41:56.710Z,99.99
2019-02-03T05:42:56.741Z,99.99
2019-02-03T05:43:56.776Z,99.99
2019-02-03T05:44:56.820Z,99.99
2019-02-03T05:45:56.853Z,99.99
2019-02-03T05:46:56.881Z,99.99
2019-02-03T05:47:57.020Z,99.99
2019-02-03T05:48:56.952Z,99.99
2019-02-03T05:49:56.988Z,99.99
2019-02-03T05:50:57.022Z,99.99
2019-02-03T05:51:57.171Z,99.99
2019-02-03T05:52:57.093Z,99.99
2019-02-03T05:53:57.131Z,99.99
2019-02-03T05:54:57.166Z,99.99
2019-02-03T05:55:57.201Z,99.99
2019-02-03T05:56:57.242Z,99.99
2019-02-03T05:57:57.270Z,99.99
2019-02-03T05:58:57.307Z,99.99
2019-02-03T05:59:57.342Z,99.99
2019-02-03T06:00:57.379Z,99.99
2019-02-03T06:01:57.412Z,99.99
2019-02-03T06:02:57.449Z,99.99
2019-02-03T06:03:57.482Z,99.99
2019-02-03T06:04:57.518Z,99.99
2019-02-03T06:05:57.554Z,99.99
2019-02-03T06:06:57.591Z,99.99
2019-02-03T06:07:57.638Z,99.99
2019-02-03T06:08:57.661Z,99.99
2019-02-03T06:09:57.699Z,99.99
2019-02-03T06:10:57.732Z,99.99
2019-02-03T06:11:57.770Z,99.99
2019-02-03T06:12:57.803Z,99.99
2019-02-03T06:13:57.870Z,99.99
2019-02-03T06:14:57.875Z,99.99
2019-02-03T06:15:57.916Z,99.99
2019-02-03T06:16:57.955Z,99.99
2019-02-03T06:17:57.985Z,99.99
2019-02-03T06:18:58.018Z,99.99
2019-02-03T06:19:58.051Z,99.99
2019-02-03T06:20:58.096Z,99.99
2019-02-03T06:21:58.123Z,99.99
2019-02-03T06:22:58.167Z,99.99
2019-02-03T06:23:58.193Z,99.99
2019-02-03T06:24:58.234Z,99.99
2019-02-03T06:25:58.269Z,99.99
2019-02-03T06:26:58.311Z,99.99
2019-02-03T06:27:58.336Z,99.99
2019-02-03T06:28:58.372Z,99.99
2019-02-03T06:29:58.409Z,99.99
2019-02-03T06:30:58.502Z,99.99
2019-02-03T06:31:58.481Z,99.99
2019-02-03T06:32:58.526Z,99.99
2019-02-03T06:33:58.557Z,99.99
2019-02-03T06:34:58.585Z,99.99
2019-02-03T06:35:58.624Z,99.99
2019-02-03T06:36:58.657Z,99.99
2019-02-03T06:37:58.743Z,99.99
2019-02-03T06:38:58.728Z,99.99
2019-02-03T06:39:58.770Z,99.99
2019-02-03T06:40:58.798Z,99.99
2019-02-03T06:41:58.834Z,99.99
2019-02-03T06:42:58.886Z,99.99
2019-02-03T06:43:58.906Z,99.99
2019-02-03T06:44:58.950Z,99.99
2019-02-03T06:45:58.978Z,99.99
2019-02-03T06:46:59.013Z,99.99
2019-02-03T06:47:59.451Z,99.99
2019-02-03T06:48:59.083Z,99.99
2019-02-03T06:49:59.119Z,99.99
2019-02-03T06:50:59.159Z,99.99
2019-02-03T06:51:59.192Z,99.99
2019-02-03T06:52:59.227Z,99.99
2019-02-03T06:53:59.261Z,99.99
2019-02-03T06:54:59.297Z,99.99
2019-02-03T06:55:59.333Z,99.99
2019-02-03T06:56:59.369Z,99.99
2019-02-03T06:57:59.404Z,99.99
2019-02-03T06:58:59.440Z,99.99
2019-02-03T06:59:59.475Z,99.99
2019-02-03T07:00:59.510Z,99.99
2019-02-03T07:01:59.551Z,99.99
2019-02-03T07:02:59.584Z,99.99
2019-02-03T07:03:59.624Z,99.99
2019-02-03T07:04:59.652Z,99.99
2019-02-03T07:05:59.695Z,99.99
2019-02-03T07:06:59.727Z,99.99
2019-02-03T07:07:59.758Z,99.99
2019-02-03T07:08:59.834Z,99.99
2019-02-03T07:10:00.770Z,99.99
2019-02-03T07:10:59.867Z,99.99
2019-02-03T07:11:59.901Z,99.99
2019-02-03T07:12:59.939Z,99.99
2019-02-03T07:13:59.973Z,99.99
2019-02-03T07:15:00.015Z,99.99
2019-02-03T07:16:00.045Z,99.99
2019-02-03T07:17:00.081Z,99.99
2019-02-03T07:18:00.116Z,99.99
2019-02-03T07:19:00.201Z,99.99
2019-02-03T07:20:00.312Z,99.99
2019-02-03T07:21:00.223Z,99.99
2019-02-03T07:22:00.274Z,99.99
2019-02-03T07:23:00.295Z,99.99
2019-02-03T07:24:00.328Z,99.99
2019-02-03T07:25:00.378Z,99.99
2019-02-03T07:26:00.408Z,99.99
2019-02-03T07:27:00.448Z,99.99
2019-02-03T07:28:00.473Z,99.99
2019-02-03T07:29:00.524Z,99.99
2019-02-03T07:30:00.544Z,99.99
2019-02-03T07:31:00.588Z,99.99
2019-02-03T07:32:00.617Z,99.99
2019-02-03T07:33:00.649Z,99.99
2019-02-03T07:34:00.687Z,99.99
2019-02-03T07:35:00.728Z,99.99
2019-02-03T07:36:00.757Z,99.99
2019-02-03T07:37:00.793Z,99.99
2019-02-03T07:38:00.848Z,99.99
2019-02-03T07:39:00.865Z,99.99
2019-02-03T07:40:11.668Z,99.99
2019-02-03T07:41:00.934Z,99.99
2019-02-03T07:42:00.978Z,99.99
2019-02-03T07:43:01.007Z,99.99
2019-02-03T07:44:01.049Z,99.99
2019-02-03T07:45:01.077Z,99.99
2019-02-03T07:46:01.114Z,99.99
2019-02-03T07:47:01.266Z,99.99
2019-02-03T07:48:01.206Z,99.99
2019-02-03T07:49:01.220Z,99.99
2019-02-03T07:50:01.257Z,99.99
2019-02-03T07:51:01.299Z,99.99
2019-02-03T07:52:01.331Z,99.99
2019-02-03T07:53:01.363Z,99.99
2019-02-03T07:54:08.562Z,99.99
2019-02-03T07:55:01.436Z,99.99
2019-02-03T07:56:01.471Z,99.99
2019-02-03T07:57:01.505Z,99.99
2019-02-03T07:58:01.542Z,99.99
2019-02-03T07:59:01.615Z,99.99
2019-02-03T08:00:01.620Z,99.99
2019-02-03T08:01:01.649Z,99.99
2019-02-03T08:02:01.691Z,99.99
2019-02-03T08:03:01.729Z,99.99
2019-02-03T08:04:01.758Z,99.99
2019-02-03T08:05:01.802Z,99.99
2019-02-03T08:06:01.828Z,99.99
2019-02-03T08:07:01.871Z,99.99
2019-02-03T08:08:01.905Z,99.99
2019-02-03T08:09:01.935Z,99.99
2019-02-03T08:10:01.979Z,99.99
2019-02-03T08:11:04.608Z,99.99
2019-02-03T08:12:02.044Z,99.99
2019-02-03T08:13:02.088Z,99.99
2019-02-03T08:14:02.114Z,99.99
2019-02-03T08:15:02.149Z,99.99
2019-02-03T08:16:02.193Z,99.99
2019-02-03T08:17:02.219Z,99.99
2019-02-03T08:18:02.262Z,99.99
2019-02-03T08:19:02.292Z,99.99
2019-02-03T08:20:02.338Z,99.99
2019-02-03T08:21:02.365Z,99.99
2019-02-03T08:22:02.411Z,99.99
2019-02-03T08:23:02.438Z,99.99
2019-02-03T08:24:02.476Z,99.99
2019-02-03T08:25:02.515Z,99.99
2019-02-03T08:26:02.545Z,99.99
2019-02-03T08:27:02.582Z,99.99
2019-02-03T08:28:02.615Z,99.99
2019-02-03T08:29:02.651Z,99.99
2019-02-03T08:30:02.687Z,99.99
2019-02-03T08:31:02.722Z,99.99
2019-02-03T08:32:02.758Z,99.99
2019-02-03T08:33:02.815Z,99.99
2019-02-03T08:34:02.833Z,99.99
2019-02-03T08:35:02.897Z,99.99
2019-02-03T08:36:02.909Z,99.99
2019-02-03T08:37:02.942Z,99.99
2019-02-03T08:38:02.984Z,99.99
2019-02-03T08:39:03.017Z,99.99
2019-02-03T08:40:03.046Z,99.99
2019-02-03T08:41:03.085Z,99.99
2019-02-03T08:42:03.121Z,99.99
2019-02-03T08:43:03.162Z,99.99
2019-02-03T08:44:03.191Z,99.99
2019-02-03T08:45:03.255Z,99.99
2019-02-03T08:46:03.265Z,99.99
2019-02-03T08:47:03.299Z,99.99
2019-02-03T08:48:03.339Z,99.99
2019-02-03T08:49:03.370Z,99.99
2019-02-03T08:50:03.403Z,99.99
2019-02-03T08:51:03.442Z,99.99
2019-02-03T08:52:03.492Z,99.99
2019-02-03T08:53:03.511Z,99.99
2019-02-03T08:54:03.548Z,99.99
2019-02-03T08:55:03.584Z,99.99
2019-02-03T08:56:03.627Z,99.99
2019-02-03T08:57:03.655Z,99.99
2019-02-03T08:58:03.692Z,99.99
2019-02-03T08:59:03.728Z,99.99
2019-02-03T09:00:03.776Z,99.99
2019-02-03T09:01:03.798Z,99.99
2019-02-03T09:02:03.840Z,99.99
2019-02-03T09:03:03.880Z,99.99
2019-02-03T09:04:03.910Z,99.99
2019-02-03T09:05:03.943Z,99.99
2019-02-03T09:06:03.987Z,99.99
2019-02-03T09:07:04.041Z,99.99
2019-02-03T09:08:04.052Z,99.99
2019-02-03T09:09:04.089Z,99.99
2019-02-03T09:10:04.127Z,99.99
2019-02-03T09:11:04.161Z,99.99
2019-02-03T09:12:04.198Z,99.99
2019-02-03T09:13:04.235Z,99.99
2019-02-03T09:14:04.277Z,99.99
2019-02-03T09:15:04.321Z,99.99
2019-02-03T09:16:04.365Z,99.99
2019-02-03T09:17:04.408Z,99.99
2019-02-03T09:18:04.415Z,99.99
2019-02-03T09:19:04.458Z,99.99
2019-02-03T09:20:04.487Z,99.99
2019-02-03T09:21:04.532Z,99.99
2019-02-03T09:22:04.564Z,99.99
2019-02-03T09:23:04.593Z,99.99
2019-02-03T09:24:04.649Z,99.99
2019-02-03T09:25:04.667Z,99.99
2019-02-03T09:26:04.711Z,99.99
2019-02-03T09:27:04.738Z,99.99
2019-02-03T09:28:04.773Z,99.99
2019-02-03T09:29:04.822Z,99.99
2019-02-03T09:30:04.852Z,99.99
2019-02-03T09:31:04.982Z,99.99
2019-02-03T09:32:04.929Z,99.99
2019-02-03T09:33:04.962Z,99.99
2019-02-03T09:34:04.993Z,99.99
2019-02-03T09:35:05.037Z,99.99
2019-02-03T09:36:05.065Z,99.99
2019-02-03T09:37:05.130Z,99.99
2019-02-03T09:38:05.139Z,98.87
2019-02-03T09:39:05.173Z,99.44
2019-02-03T09:40:05.224Z,99.72
2019-02-03T09:41:05.255Z,99.72
2019-02-03T09:42:05.282Z,99.99
2019-02-03T09:43:05.321Z,99.25
2019-02-03T09:44:05.365Z,99.44
2019-02-03T09:45:05.416Z,99.53
2019-02-03T09:46:05.432Z,98.77
2019-02-03T09:47:05.476Z,99.06
2019-02-03T09:48:05.517Z,99.34
2019-02-03T09:49:05.539Z,99.63
2019-02-03T09:50:05.584Z,98.21
2019-02-03T09:51:05.641Z,98.30
2019-02-03T09:52:05.653Z,98.11
2019-02-03T09:53:05.833Z,98.77
2019-02-03T09:54:05.737Z,98.06
2019-02-03T09:55:05.811Z,98.87
2019-02-03T09:56:06.582Z,99.06
2019-02-03T09:57:05.881Z,99.06
2019-02-03T09:58:05.871Z,99.15
2019-02-03T09:59:06.160Z,98.77
2019-02-03T10:00:05.942Z,98.96
2019-02-03T10:01:06.256Z,98.87
2019-02-03T10:02:06.171Z,99.39
2019-02-03T10:03:06.053Z,99.29
2019-02-03T10:04:06.103Z,99.06
2019-02-03T10:05:06.134Z,98.82
2019-02-03T10:06:06.167Z,98.82
2019-02-03T10:07:06.201Z,99.29
2019-02-03T10:08:06.233Z,99.10
2019-02-03T10:09:06.277Z,99.01
2019-02-03T10:10:06.311Z,99.39
2019-02-03T10:11:12.171Z,99.20
2019-02-03T10:12:06.382Z,99.20
2019-02-03T10:13:06.423Z,99.20
2019-02-03T10:14:06.454Z,99.29
2019-02-03T10:15:06.489Z,99.29
2019-02-03T10:16:06.526Z,99.01
2019-02-03T10:17:06.569Z,99.86
2019-02-03T10:18:06.599Z,99.53
2019-02-03T10:19:06.638Z,99.06
2019-02-03T10:20:06.677Z,98.96
2019-02-03T10:21:06.711Z,99.53
2019-02-03T10:22:06.748Z,99.99
2019-02-03T10:23:06.798Z,99.34
2019-02-03T10:24:06.831Z,99.63
2019-02-03T10:25:06.854Z,99.44
2019-02-03T10:26:06.898Z,98.87
2019-02-03T10:27:06.931Z,99.34
2019-02-03T10:28:06.969Z,99.44
2019-02-03T10:29:07.109Z,98.77
2019-02-03T10:30:07.037Z,98.11
2019-02-03T10:31:07.074Z,99.15
2019-02-03T10:32:07.117Z,98.87
2019-02-03T10:33:07.154Z,99.25
2019-02-03T10:34:07.185Z,99.44
2019-02-03T10:35:07.227Z,99.06
2019-02-03T10:36:07.260Z,99.06
2019-02-03T10:37:07.294Z,99.15
2019-02-03T10:38:07.432Z,99.34
2019-02-03T10:39:07.374Z,98.77
2019-02-03T10:40:07.408Z,98.58
2019-02-03T10:41:08.011Z,99.15
2019-02-03T10:42:07.478Z,98.77
2019-02-03T10:43:07.929Z,98.77
2019-02-03T10:44:07.556Z,98.49
2019-02-03T10:45:07.784Z,99.06
2019-02-03T10:46:07.626Z,98.21
2019-02-03T10:47:07.807Z,98.96
2019-02-03T10:48:07.737Z,99.06
2019-02-03T10:49:07.737Z,98.96
2019-02-03T10:50:07.775Z,98.77
2019-02-03T10:51:07.809Z,98.39
2019-02-03T10:52:07.853Z,98.39
2019-02-03T10:53:07.889Z,99.06
2019-02-03T10:54:07.918Z,98.87
2019-02-03T10:55:07.972Z,98.77
2019-02-03T10:56:07.994Z,99.63
2019-02-03T10:57:08.033Z,99.06
2019-02-03T10:58:08.068Z,99.15
2019-02-03T10:59:08.105Z,99.06
2019-02-03T11:00:18.171Z,99.06
2019-02-03T11:01:08.174Z,99.44
2019-02-03T11:02:08.220Z,98.77
2019-02-03T11:03:08.269Z,98.30
2019-02-03T11:04:08.285Z,98.96
2019-02-03T11:05:08.322Z,99.44
2019-02-03T11:06:08.360Z,98.68
2019-02-03T11:08:08.433Z,98.96
2019-02-03T11:09:08.469Z,99.34
2019-02-03T11:10:08.511Z,99.44
2019-02-03T11:11:08.545Z,99.34
2019-02-03T11:12:08.580Z,98.96
2019-02-03T11:13:09.182Z,99.06
2019-02-03T11:14:08.653Z,99.34
2019-02-03T11:15:08.690Z,99.44
2019-02-03T11:16:08.724Z,98.77
2019-02-03T11:17:08.769Z,98.21
2019-02-03T11:18:08.808Z,98.87
2019-02-03T11:19:08.837Z,99.06
2019-02-03T11:20:08.875Z,98.58
2019-02-03T11:21:08.920Z,98.77
2019-02-03T11:22:08.944Z,98.96
2019-02-03T11:23:08.983Z,98.49
2019-02-03T11:24:09.024Z,98.02
2019-02-03T11:25:09.065Z,97.83
2019-02-03T11:26:09.116Z,97.83
2019-02-03T11:27:09.141Z,98.58
2019-02-03T11:28:09.223Z,98.87
2019-02-03T11:29:09.241Z,99.53
2019-02-03T11:30:09.262Z,99.06
2019-02-03T11:31:09.289Z,98.77
2019-02-03T11:32:09.319Z,98.49
2019-02-03T11:33:09.770Z,98.02
2019-02-03T11:34:09.398Z,98.49
2019-02-03T11:35:09.427Z,98.11
2019-02-03T11:36:09.461Z,98.30
2019-02-03T11:37:09.507Z,98.49
2019-02-03T11:38:09.542Z,98.77
2019-02-03T11:39:09.678Z,98.68
2019-02-03T11:40:09.618Z,99.06
2019-02-03T11:41:09.643Z,98.58
2019-02-03T11:42:09.779Z,98.30
2019-02-03T11:43:09.719Z,98.11
2019-02-03T11:44:09.760Z,98.30
2019-02-03T11:45:09.790Z,99.06
2019-02-03T11:46:09.841Z,99.06
2019-02-03T11:47:09.867Z,98.77
2019-02-03T11:48:09.915Z,98.21
2019-02-03T11:49:10.048Z,98.21
2019-02-03T11:50:09.978Z,98.21
2019-02-03T11:51:10.029Z,98.87
2019-02-03T11:52:10.047Z,98.21
2019-02-03T11:53:10.093Z,97.88
2019-02-03T11:54:10.172Z,97.64
2019-02-03T11:55:10.166Z,98.21
2019-02-03T11:56:10.639Z,98.16
2019-02-03T11:57:10.240Z,97.83
2019-02-03T11:58:10.712Z,98.16
2019-02-03T11:59:10.802Z,97.59
2019-02-03T12:00:10.343Z,98.25
2019-02-03T12:01:10.379Z,97.97
2019-02-03T12:02:10.416Z,97.88
2019-02-03T12:03:11.048Z,98.02
2019-02-03T12:04:10.597Z,98.11
2019-02-03T12:05:10.535Z,98.11
2019-02-03T12:06:10.585Z,97.64
2019-02-03T12:07:10.624Z,98.02
2019-02-03T12:08:10.696Z,98.30
2019-02-03T12:09:10.677Z,98.87
2019-02-03T12:10:10.719Z,99.15
2019-02-03T12:11:10.747Z,98.87
2019-02-03T12:12:10.891Z,98.87
2019-02-03T12:13:10.834Z,98.96
2019-02-03T12:14:10.866Z,99.15
2019-02-03T12:15:10.899Z,99.25
2019-02-03T12:16:10.933Z,99.25
2019-02-03T12:17:10.970Z,98.96
2019-02-03T12:18:11.007Z,99.15
2019-02-03T12:19:11.042Z,99.15
2019-02-03T12:20:11.079Z,99.15
2019-02-03T12:21:11.119Z,98.96
2019-02-03T12:22:11.152Z,99.06
2019-02-03T12:23:11.207Z,99.34
2019-02-03T12:24:11.231Z,99.06
2019-02-03T12:25:11.283Z,99.63
2019-02-03T12:26:11.301Z,99.06
2019-02-03T12:27:11.346Z,99.53
2019-02-03T12:28:11.376Z,99.53
2019-02-03T12:29:11.426Z,99.82
2019-02-03T12:30:11.448Z,99.72
2019-02-03T12:31:11.488Z,99.53
2019-02-03T12:32:11.532Z,99.53
2019-02-03T12:33:11.559Z,99.99
2019-02-03T12:34:11.596Z,99.63
2019-02-03T12:35:11.634Z,99.91
2019-02-03T12:36:11.669Z,99.63
2019-02-03T12:37:11.713Z,99.63
2019-02-03T12:38:11.745Z,99.82
2019-02-03T12:39:11.776Z,99.72
2019-02-03T12:40:11.942Z,99.53
2019-02-03T12:41:11.853Z,99.72
2019-02-03T12:42:13.515Z,99.34
2019-02-03T12:43:11.932Z,99.15
2019-02-03T12:44:12.128Z,99.06
2019-02-03T12:45:11.998Z,99.06
2019-02-03T12:46:12.059Z,99.15
2019-02-03T12:47:12.069Z,99.06
2019-02-03T12:48:12.119Z,99.53
2019-02-03T12:49:12.150Z,99.44
2019-02-03T12:50:12.286Z,99.82
2019-02-03T12:51:12.228Z,99.34
2019-02-03T12:52:12.264Z,99.34
2019-02-03T12:53:12.354Z,98.87
2019-02-03T12:54:12.327Z,99.06